Terminal Aerodrome Forecast
Issued by NWS

Home | Current Version | Previous Version | Text Only | Print | Product List | Glossary On
Versions: 1 2 3 4 5 6 7 8 9 10 11 12 13 14 15 16 17
000
FTUS41 KBTV 031913 RRN
TAFBTV

TAF
KMSS 032320Z 0318/0418 23011G18KT P6SM VCSH SCT040 BKN080
      TEMPO 0319/0320 3SM -SHRA BR BKN035
     FM040000 23005KT P6SM SCT060 BKN150
     FM041200 24008KT P6SM SCT040 BKN120
     FM041600 24010G17KT P6SM VCSH BKN040=

USA.gov is the U.S. government's official web portal to all federal, state and local government web resources and services.